createdAt,value
2023-03-06T00:00:37.422Z,15.13
2023-03-06T00:06:40.942Z,15.57
2023-03-06T00:12:45.732Z,15.25
2023-03-06T00:18:49.328Z,15.65
2023-03-06T00:24:54.794Z,14.55
2023-03-06T00:30:59.583Z,14.30
2023-03-06T00:37:05.383Z,15.98
2023-03-06T00:43:08.774Z,14.65
2023-03-06T00:49:13.817Z,14.98
2023-03-06T00:55:17.183Z,14.80
2023-03-06T01:01:20.903Z,15.20
2023-03-06T01:07:27.302Z,14.40
2023-03-06T01:13:30.840Z,14.40
2023-03-06T01:19:34.188Z,14.07
2023-03-06T01:25:39.256Z,13.90
2023-03-06T01:31:42.939Z,15.27
2023-03-06T01:37:46.599Z,14.23
2023-03-06T01:43:51.509Z,13.07
2023-03-06T01:49:55.261Z,14.48
2023-03-06T01:55:58.701Z,14.60
2023-03-06T02:02:04.430Z,14.48
2023-03-06T02:08:08.673Z,14.77
2023-03-06T02:14:13.392Z,15.57
2023-03-06T02:20:22.717Z,15.40
2023-03-06T02:26:28.740Z,15.27
2023-03-06T02:32:32.154Z,15.00
2023-03-06T02:38:38.246Z,15.10
2023-03-06T02:44:43.132Z,14.82
2023-03-06T02:50:47.566Z,15.82
2023-03-06T02:56:50.955Z,14.55
2023-03-06T03:02:56.496Z,15.18
2023-03-06T03:08:59.879Z,15.20
2023-03-06T03:15:03.296Z,14.75
2023-03-06T03:21:10.579Z,15.65
2023-03-06T03:27:14.049Z,15.38
2023-03-06T03:33:17.642Z,15.95
2023-03-06T03:39:22.535Z,15.45
2023-03-06T03:45:26.073Z,16.02
2023-03-06T03:51:29.547Z,15.10
2023-03-06T03:57:34.365Z,16.55
2023-03-06T04:03:37.785Z,16.17
2023-03-06T04:09:41.375Z,17.38
2023-03-06T04:15:46.291Z,16.63
2023-03-06T04:21:49.926Z,17.10
2023-03-06T04:27:53.410Z,16.27
2023-03-06T04:33:58.156Z,15.55
2023-03-06T04:40:01.629Z,17.60
2023-03-06T04:46:05.368Z,16.25
2023-03-06T04:52:10.282Z,20.10
2023-03-06T04:58:13.936Z,17.05
2023-03-06T05:04:17.308Z,17.10
2023-03-06T05:10:22.228Z,19.40
2023-03-06T05:16:25.689Z,21.27
2023-03-06T05:22:29.407Z,19.90
2023-03-06T05:28:34.205Z,21.25
2023-03-06T05:34:37.573Z,20.50
2023-03-06T05:40:42.275Z,19.45
2023-03-06T05:46:47.152Z,17.30
2023-03-06T05:52:50.700Z,16.80
2023-03-06T05:58:54.140Z,17.92
2023-03-06T06:04:58.912Z,17.58
2023-03-06T06:11:02.376Z,19.63
2023-03-06T06:17:06.428Z,19.48
2023-03-06T06:23:12.027Z,17.85
2023-03-06T06:29:15.699Z,17.05
2023-03-06T06:35:19.297Z,18.77
2023-03-06T06:41:46.251Z,19.58
2023-03-06T06:47:47.783Z,20.13
2023-03-06T06:53:53.266Z,19.10
2023-03-06T06:59:58.383Z,17.20
2023-03-06T07:06:01.902Z,18.38
2023-03-06T07:12:05.306Z,17.30
2023-03-06T07:18:10.157Z,17.33
2023-03-06T07:24:13.548Z,16.92
2023-03-06T07:30:17.070Z,18.42
2023-03-06T07:36:22.097Z,17.40
2023-03-06T07:42:25.476Z,18.00
2023-03-06T07:48:29.288Z,16.92
2023-03-06T07:54:35.265Z,24.38
2023-03-06T08:00:38.745Z,17.17
2023-03-06T08:06:42.282Z,16.60
2023-03-06T08:12:47.066Z,15.98
2023-03-06T08:18:50.483Z,17.23
2023-03-06T08:24:57.122Z,15.93
2023-03-06T08:31:09.239Z,17.25
2023-03-06T08:37:12.728Z,15.68
2023-03-06T08:43:16.160Z,16.00
2023-03-06T08:49:21.426Z,18.33
2023-03-06T08:55:24.837Z,17.67
2023-03-06T09:01:29.233Z,15.55
2023-03-06T09:07:34.136Z,16.02
2023-03-06T09:13:37.801Z,16.63
2023-03-06T09:19:41.312Z,15.65
2023-03-06T09:25:46.142Z,14.23
2023-03-06T09:31:49.752Z,15.65
2023-03-06T09:37:53.556Z,14.82
2023-03-06T09:44:04.702Z,13.40
2023-03-06T09:50:15.996Z,13.38
2023-03-06T09:56:21.622Z,12.33
2023-03-06T10:02:30.611Z,13.82
2023-03-06T10:08:40.222Z,13.20
2023-03-06T10:14:48.792Z,12.80
2023-03-06T10:21:13.430Z,13.57
2023-03-06T10:27:31.667Z,13.00
2023-03-06T10:33:49.529Z,13.15
2023-03-06T10:39:59.180Z,12.05
2023-03-06T10:46:02.862Z,12.02
2023-03-06T10:52:07.405Z,11.10
2023-03-06T10:58:23.809Z,10.20
2023-03-06T11:04:28.900Z,11.57
2023-03-06T11:10:35.164Z,9.80
2023-03-06T11:16:40.438Z,11.38
2023-03-06T11:22:47.575Z,10.40
2023-03-06T11:28:59.979Z,10.48
2023-03-06T11:35:06.417Z,10.63
2023-03-06T11:41:15.554Z,10.15
2023-03-06T11:47:20.851Z,9.93
2023-03-06T11:53:28.940Z,8.43
2023-03-06T11:59:36.571Z,11.55
2023-03-06T12:05:45.256Z,11.35
2023-03-06T12:11:55.038Z,11.20
2023-03-06T12:18:03.058Z,8.65
2023-03-06T12:24:12.580Z,8.68
2023-03-06T12:30:34.825Z,7.43
2023-03-06T12:36:46.405Z,7.63
2023-03-06T12:43:01.616Z,8.77
2023-03-06T12:49:06.086Z,8.10
2023-03-06T12:55:17.743Z,7.40
2023-03-06T13:01:38.733Z,7.13
2023-03-06T13:07:55.629Z,8.10
2023-03-06T13:14:00.492Z,8.40
2023-03-06T13:20:24.663Z,5.75
2023-03-06T13:26:46.856Z,9.43
2023-03-06T13:32:53.266Z,8.75
2023-03-06T13:38:58.090Z,8.32
2023-03-06T13:45:07.917Z,9.70
2023-03-06T13:51:25.060Z,9.82
2023-03-06T13:57:36.430Z,10.98
2023-03-06T14:03:50.113Z,9.32
2023-03-06T14:10:09.327Z,9.40
2023-03-06T14:16:19.723Z,7.47
2023-03-06T14:22:25.182Z,9.23
2023-03-06T14:28:29.610Z,8.73
2023-03-06T14:34:37.107Z,9.47
2023-03-06T14:40:44.421Z,8.63
2023-03-06T14:46:48.689Z,9.25
2023-03-06T14:52:55.774Z,8.40
2023-03-06T14:59:01.186Z,8.77
2023-03-06T15:05:06.606Z,8.98
2023-03-06T15:11:11.464Z,9.40
2023-03-06T15:17:32.528Z,5.95
2023-03-06T15:23:37.017Z,4.65
2023-03-06T15:29:41.953Z,4.57
2023-03-06T15:35:54.947Z,5.00
2023-03-06T15:41:59.087Z,4.65
2023-03-06T15:48:04.176Z,5.22
2023-03-06T15:54:12.229Z,5.13
2023-03-06T16:00:26.852Z,4.32
2023-03-06T16:06:32.596Z,4.13
2023-03-06T16:12:36.028Z,4.85
2023-03-06T16:18:39.974Z,5.15
2023-03-06T16:24:44.718Z,4.68
2023-03-06T16:30:48.187Z,4.20
2023-03-06T16:36:52.189Z,4.32
2023-03-06T16:42:56.990Z,5.05
2023-03-06T16:49:00.594Z,6.15
2023-03-06T16:55:04.707Z,4.82
2023-03-06T17:01:10.349Z,6.20
2023-03-06T17:07:13.842Z,5.50
2023-03-06T17:13:17.438Z,7.05
2023-03-06T17:19:22.835Z,5.93
2023-03-06T17:25:26.508Z,5.97
2023-03-06T17:31:31.328Z,6.00
2023-03-06T17:37:36.237Z,4.85
2023-03-06T17:43:41.360Z,3.67
2023-03-06T17:49:44.767Z,4.55
2023-03-06T17:55:49.807Z,3.15
2023-03-06T18:01:53.243Z,3.75
2023-03-06T18:07:57.194Z,4.45
2023-03-06T18:14:03.761Z,3.90
2023-03-06T18:20:09.303Z,4.07
2023-03-06T18:26:13.993Z,4.20
2023-03-06T18:32:18.903Z,3.92
2023-03-06T18:38:22.342Z,2.92
2023-03-06T18:44:25.840Z,1.83
2023-03-06T18:50:30.723Z,1.80
2023-03-06T18:56:34.410Z,3.05
2023-03-06T19:02:38.045Z,2.60
2023-03-06T19:08:43.161Z,2.72
2023-03-06T19:14:46.653Z,2.60
2023-03-06T19:20:50.064Z,2.58
2023-03-06T19:26:54.946Z,3.20
2023-03-06T19:32:58.929Z,2.20
2023-03-06T19:39:03.486Z,2.58
2023-03-06T19:45:09.115Z,2.47
2023-03-06T19:51:12.945Z,2.25
2023-03-06T19:57:16.932Z,2.33
2023-03-06T20:03:21.890Z,2.40
2023-03-06T20:09:25.416Z,2.38
2023-03-06T20:15:29.148Z,2.13
2023-03-06T20:21:35.425Z,2.20
2023-03-06T20:27:39.378Z,1.90
2023-03-06T20:33:42.816Z,1.90
2023-03-06T20:39:47.900Z,3.08
2023-03-06T20:45:57.694Z,1.90
2023-03-06T20:52:02.472Z,2.22
2023-03-06T20:58:07.220Z,1.95
2023-03-06T21:04:11.123Z,2.10
2023-03-06T21:10:14.620Z,2.47
2023-03-06T21:16:20.589Z,2.10
2023-03-06T21:22:24.026Z,2.70
2023-03-06T21:28:27.583Z,2.67
2023-03-06T21:34:32.340Z,2.15
2023-03-06T21:40:36.301Z,2.30
2023-03-06T21:46:40.343Z,2.47
2023-03-06T21:52:45.245Z,1.80
2023-03-06T21:58:48.906Z,2.20
2023-03-06T22:04:52.705Z,2.03
2023-03-06T22:10:57.602Z,1.95
2023-03-06T22:17:01.532Z,1.70
2023-03-06T22:23:05.334Z,2.55
2023-03-06T22:29:10.221Z,2.28
2023-03-06T22:35:13.644Z,2.40
2023-03-06T22:41:18.443Z,2.58
2023-03-06T22:47:23.285Z,2.28
2023-03-06T22:53:26.704Z,2.47
2023-03-06T22:59:30.214Z,2.17
2023-03-06T23:05:35.051Z,1.67
2023-03-06T23:11:38.429Z,2.15
2023-03-06T23:17:41.933Z,2.05
2023-03-06T23:23:48.790Z,2.53
2023-03-06T23:29:55.335Z,1.80
2023-03-06T23:36:03.369Z,1.70
2023-03-06T23:42:08.216Z,1.52
2023-03-06T23:48:12.677Z,1.52
2023-03-06T23:54:16.225Z,2.40
